Time;durP1;ratioP1;P1;durP2;ratioP2;P2;SDS_P1;SDS_P2;PMS_P1;PMS_P2;Temp;Humidity;BMP_temperature;BMP_pressure;BME280_temperature;BME280_humidity;BME280_pressure;Samples;Min_cycle;Max_cycle;Signal;HPM_P1;HPM_P2
2023/04/08 00:01:29;;;;;;;31.48;13.85;;;;;;;;;;4993737;28;25111;-70
2023/04/08 00:03:55;;;;;;;31.50;13.65;;;;;;;;;;5012033;28;25049;-72
2023/04/08 00:06:21;;;;;;;26.55;13.35;;;;;;;;;;5004956;28;25082;-73
2023/04/08 00:08:47;;;;;;;31.25;13.75;;;;;;;;;;5007508;28;25102;-72
2023/04/08 00:11:12;;;;;;;34.70;13.68;;;;;;;;;;5012921;28;25058;-73
2023/04/08 00:13:39;;;;;;;34.35;14.95;;;;;;;;;;5006847;28;25061;-73
2023/04/08 00:16:05;;;;;;;35.40;12.98;;;;;;;;;;4993863;28;25123;-74
2023/04/08 00:18:31;;;;;;;35.00;12.45;;;;;;;;;;5008921;28;25070;-70
2023/04/08 00:20:57;;;;;;;31.60;14.60;;;;;;;;;;5004981;28;25078;-70
2023/04/08 00:23:23;;;;;;;35.63;15.13;;;;;;;;;;5011945;28;25083;-72
2023/04/08 00:25:49;;;;;;;37.28;13.43;;;;;;;;;;5011875;28;25116;-70
2023/04/08 00:28:15;;;;;;;42.30;14.73;;;;;;;;;;5013953;28;25150;-72
2023/04/08 00:30:41;;;;;;;33.83;14.25;;;;;;;;;;5013420;28;25065;-71
2023/04/08 00:33:07;;;;;;;32.72;13.45;;;;;;;;;;5001209;28;25065;-72
2023/04/08 00:35:34;;;;;;;31.33;14.10;;;;;;;;;;5008857;28;25072;-73
2023/04/08 00:38:00;;;;;;;35.15;14.57;;;;;;;;;;5010542;28;25068;-71
2023/04/08 00:40:26;;;;;;;28.77;12.80;;;;;;;;;;5007550;28;25052;-71
2023/04/08 00:42:52;;;;;;;33.70;13.15;;;;;;;;;;5001659;28;25079;-72
2023/04/08 00:45:18;;;;;;;33.20;13.38;;;;;;;;;;4995440;28;25062;-73
2023/04/08 00:47:45;;;;;;;38.20;16.48;;;;;;;;;;5008990;28;25075;-70
2023/04/08 00:50:11;;;;;;;39.83;14.63;;;;;;;;;;5014395;28;25071;-71
2023/04/08 00:52:37;;;;;;;41.90;14.55;;;;;;;;;;4985474;28;25162;-74
2023/04/08 00:55:04;;;;;;;33.53;14.25;;;;;;;;;;4998732;28;25063;-72
2023/04/08 00:57:30;;;;;;;42.45;14.27;;;;;;;;;;4987001;28;25180;-71
2023/04/08 00:59:56;;;;;;;31.25;14.60;;;;;;;;;;5001275;28;25070;-72
2023/04/08 01:02:27;;;;;;;35.38;14.65;;;;;;;;;;5002541;28;25099;-74
2023/04/08 01:05:07;;;;;;;34.70;14.82;;;;;;;;;;4983341;28;25156;-71
2023/04/08 01:07:34;;;;;;;32.55;14.57;;;;;;;;;;4990459;28;25125;-72
2023/04/08 01:10:21;;;;;;;42.00;15.18;;;;;;;;;;4986563;28;25048;-74
2023/04/08 01:12:53;;;;;;;39.10;15.63;;;;;;;;;;5005758;28;25135;-72
2023/04/08 01:15:20;;;;;;;45.67;16.17;;;;;;;;;;5000197;28;25074;-72
2023/04/08 01:17:46;;;;;;;39.55;16.70;;;;;;;;;;5008153;28;25102;-73
2023/04/08 01:20:13;;;;;;;49.67;19.30;;;10.30;99.90;;;;;;4990173;28;25062;-72
2023/04/08 01:22:53;;;;;;;46.65;18.25;;;;;;;;;;4992158;28;25161;-72
2023/04/08 01:25:23;;;;;;;46.95;16.20;;;;;;;;;;4987412;28;25139;-70
2023/04/08 01:27:50;;;;;;;40.70;16.05;;;;;;;;;;5001882;28;25087;-76
2023/04/08 01:30:18;;;;;;;49.97;18.33;;;;;;;;;;4985486;28;25082;-72
2023/04/08 01:32:45;;;;;;;33.75;16.20;;;;;;;;;;4986255;28;25095;-72
2023/04/08 01:35:12;;;;;;;39.58;18.77;;;;;;;;;;4991248;28;25158;-72
2023/04/08 01:37:38;;;;;;;45.20;17.60;;;;;;;;;;5013564;28;25171;-72
2023/04/08 01:40:05;;;;;;;54.08;18.27;;;;;;;;;;4975496;28;25089;-71
2023/04/08 01:42:32;;;;;;;43.58;18.08;;;;;;;;;;5009392;28;25146;-72
2023/04/08 01:44:59;;;;;;;44.35;17.45;;;;;;;;;;4984191;28;25099;-71
2023/04/08 01:47:25;;;;;;;44.80;17.73;;;;;;;;;;5007739;28;25076;-73
2023/04/08 01:49:51;;;;;;;42.83;16.80;;;10.60;99.90;;;;;;4990233;28;25141;-71
2023/04/08 01:52:19;;;;;;;40.20;18.15;;;;;;;;;;4988090;28;25069;-71
2023/04/08 01:54:45;;;;;;;45.95;19.30;;;;;;;;;;4993389;28;25072;-71
2023/04/08 01:57:14;;;;;;;52.63;18.63;;;;;;;;;;4977411;28;25107;-72
2023/04/08 01:59:40;;;;;;;44.03;17.83;;;;;;;;;;4994002;28;25058;-74
2023/04/08 02:02:08;;;;;;;44.40;17.98;;;10.70;99.90;;;;;;4989221;28;25071;-72
2023/04/08 02:04:35;;;;;;;48.85;20.13;;;;;;;;;;4992636;28;25072;-72
2023/04/08 02:07:01;;;;;;;59.20;20.00;;;;;;;;;;4992674;28;25058;-71
2023/04/08 02:09:28;;;;;;;55.67;20.38;;;;;;;;;;5000942;28;25153;-73
2023/04/08 02:11:55;;;;;;;45.45;19.38;;;;;;;;;;4977957;28;25065;-72
2023/04/08 02:14:22;;;;;;;53.03;19.95;;;;;;;;;;5007852;28;25061;-72
2023/04/08 02:16:48;;;;;;;58.63;21.10;;;;;;;;;;4986905;28;25064;-72
2023/04/08 02:19:15;;;;;;;51.58;19.73;;;;;;;;;;5003725;28;25070;-73
2023/04/08 02:21:47;;;;;;;56.17;21.77;;;;;;;;;;4986690;28;25071;-72
2023/04/08 02:24:14;;;;;;;43.88;19.77;;;;;;;;;;4998844;28;25073;-71
2023/04/08 02:26:41;;;;;;;59.13;20.48;;;;;;;;;;4997306;28;25072;-71
2023/04/08 02:29:11;;;;;;;56.30;22.13;;;;;;;;;;5013549;28;25069;-72
2023/04/08 02:31:38;;;;;;;57.92;22.00;;;;;;;;;;5011558;28;25090;-72
2023/04/08 02:34:05;;;;;;;52.78;21.33;;;;;;;;;;5009210;28;25094;-74
2023/04/08 02:36:33;;;;;;;50.33;22.63;;;;;;;;;;5006396;28;25051;-72
2023/04/08 02:38:59;;;;;;;51.47;21.45;;;;;;;;;;5002001;28;25068;-72
2023/04/08 02:41:28;;;;;;;54.17;22.60;;;;;;;;;;5013990;28;25084;-71
2023/04/08 02:43:54;;;;;;;50.72;20.92;;;;;;;;;;5005366;28;25132;-73
2023/04/08 02:46:20;;;;;;;63.90;24.38;;;;;;;;;;5012579;28;25089;-73
2023/04/08 02:48:46;;;;;;;49.60;21.35;;;;;;;;;;5014236;28;25072;-72
2023/04/08 02:51:12;;;;;;;57.00;21.77;;;;;;;;;;5006761;28;25074;-73
2023/04/08 02:53:38;;;;;;;55.38;22.70;;;;;;;;;;5017887;28;25074;-72
2023/04/08 02:56:04;;;;;;;48.85;21.63;;;;;;;;;;5017277;28;25091;-72
2023/04/08 02:58:30;;;;;;;57.38;24.27;;;;;;;;;;5013048;28;25075;-73
2023/04/08 03:00:56;;;;;;;53.30;23.83;;;;;;;;;;5005394;28;25089;-71
2023/04/08 03:03:27;;;;;;;65.65;25.17;;;;;;;;;;5012171;28;25150;-73
2023/04/08 03:05:53;;;;;;;66.32;25.48;;;;;;;;;;5014291;28;25068;-71
2023/04/08 03:08:19;;;;;;;68.28;26.15;;;;;;;;;;5014412;28;25110;-72
2023/04/08 03:10:45;;;;;;;59.05;23.35;;;;;;;;;;5014473;28;25168;-73
2023/04/08 03:13:11;;;;;;;65.45;24.92;;;;;;;;;;5009588;28;25096;-72
2023/04/08 03:15:37;;;;;;;58.30;22.38;;;;;;;;;;5015371;28;25113;-72
2023/04/08 03:18:03;;;;;;;59.50;25.33;;;;;;;;;;5013933;28;25102;-72
2023/04/08 03:20:29;;;;;;;63.30;24.92;;;;;;;;;;5016377;28;25100;-72
2023/04/08 03:22:55;;;;;;;53.33;24.27;;;;;;;;;;5014816;28;25118;-72
2023/04/08 03:25:21;;;;;;;58.65;24.30;;;;;;;;;;5011976;28;25062;-72
2023/04/08 03:27:47;;;;;;;65.68;26.40;;;;;;;;;;5012835;28;25076;-71
2023/04/08 03:30:13;;;;;;;72.00;25.67;;;;;;;;;;5010744;28;25174;-71
2023/04/08 03:32:39;;;;;;;64.30;25.10;;;;;;;;;;5006278;28;25158;-71
2023/04/08 03:35:06;;;;;;;64.65;25.83;;;;;;;;;;5013854;28;25111;-71
2023/04/08 03:37:32;;;;;;;58.80;23.98;;;;;;;;;;5010594;28;25081;-72
2023/04/08 03:39:58;;;;;;;72.38;26.73;;;;;;;;;;5012532;28;25052;-72
2023/04/08 03:42:24;;;;;;;61.40;24.15;;;;;;;;;;5005977;28;25145;-72
2023/04/08 03:44:50;;;;;;;59.42;24.13;;;;;;;;;;5005632;28;25072;-71
2023/04/08 03:47:16;;;;;;;65.50;26.33;;;;;;;;;;5003267;28;25070;-72
2023/04/08 03:49:42;;;;;;;63.15;25.63;;;;;;;;;;5003491;28;25098;-73
2023/04/08 03:52:08;;;;;;;62.17;24.63;;;;;;;;;;5011215;28;25071;-68
2023/04/08 03:54:34;;;;;;;71.45;26.10;;;;;;;;;;5007552;28;25101;-72
2023/04/08 03:57:00;;;;;;;66.15;25.13;;;;;;;;;;5011239;28;25073;-73
2023/04/08 03:59:26;;;;;;;72.07;27.13;;;;;;;;;;4991195;28;25062;-72
2023/04/08 04:01:52;;;;;;;59.15;24.33;;;;;;;;;;5013321;28;25058;-72
2023/04/08 04:04:18;;;;;;;74.50;28.92;;;;;;;;;;5007967;28;25072;-72
2023/04/08 04:06:44;;;;;;;72.43;25.00;;;;;;;;;;5013025;28;25086;-71
2023/04/08 04:09:10;;;;;;;60.65;24.98;;;;;;;;;;5012423;28;25068;-71
2023/04/08 04:11:36;;;;;;;71.28;28.15;;;;;;;;;;5006857;28;25059;-71
2023/04/08 04:14:02;;;;;;;65.82;25.25;;;;;;;;;;5009193;28;25056;-72
2023/04/08 04:16:29;;;;;;;61.63;23.40;;;;;;;;;;5005106;28;25076;-72
2023/04/08 04:18:55;;;;;;;75.97;27.15;;;;;;;;;;5007220;28;25085;-72
2023/04/08 04:21:20;;;;;;;70.70;27.48;;;;;;;;;;5005708;28;25079;-71
2023/04/08 04:23:46;;;;;;;73.13;27.25;;;;;;;;;;5008623;28;25046;-73
2023/04/08 04:26:12;;;;;;;61.63;25.05;;;;;;;;;;5006034;28;25145;-74
2023/04/08 04:28:39;;;;;;;66.93;24.88;;;;;;;;;;5011299;28;25104;-73
2023/04/08 04:31:05;;;;;;;65.13;27.40;;;;;;;;;;5011871;28;25161;-72
2023/04/08 04:33:31;;;;;;;60.42;24.15;;;;;;;;;;4989934;28;25062;-72
2023/04/08 04:35:56;;;;;;;67.40;24.65;;;;;;;;;;5003133;28;25064;-73
2023/04/08 04:38:22;;;;;;;66.97;26.02;;;;;;;;;;5012704;28;25055;-71
2023/04/08 04:40:48;;;;;;;65.32;25.25;;;;;;;;;;5012532;28;25103;-71
2023/04/08 04:43:14;;;;;;;67.68;25.00;;;;;;;;;;5014016;28;25074;-72
2023/04/08 04:45:40;;;;;;;72.60;26.23;;;;;;;;;;5014446;28;25080;-72
2023/04/08 04:48:06;;;;;;;70.55;25.42;;;;;;;;;;4992164;28;25103;-70
2023/04/08 04:50:33;;;;;;;59.25;24.55;;;;;;;;;;5006654;28;25062;-72
2023/04/08 04:52:59;;;;;;;66.90;24.95;;;;;;;;;;5010260;28;25058;-71
2023/04/08 04:55:25;;;;;;;76.70;27.08;;;;;;;;;;5013209;28;25102;-72
2023/04/08 04:57:51;;;;;;;75.88;26.85;;;;;;;;;;5023597;28;25057;-72
2023/04/08 05:00:17;;;;;;;77.95;28.98;;;;;;;;;;5024229;28;25123;-70
2023/04/08 05:02:43;;;;;;;79.35;26.67;;;;;;;;;;5007955;28;25058;-71
2023/04/08 05:05:09;;;;;;;99.78;27.55;;;;;;;;;;5011196;28;25089;-71
2023/04/08 05:07:36;;;;;;;94.95;29.23;;;;;;;;;;5012924;28;25068;-71
2023/04/08 05:10:02;;;;;;;113.07;31.40;;;;;;;;;;5010109;28;25190;-70
2023/04/08 05:12:28;;;;;;;149.35;35.75;;;;;;;;;;5010276;28;25070;-72
2023/04/08 05:14:54;;;;;;;94.88;28.98;;;;;;;;;;5013796;28;25086;-71
2023/04/08 05:17:20;;;;;;;88.25;29.70;;;;;;;;;;5015709;28;25395;-72
2023/04/08 05:19:46;;;;;;;95.40;29.45;;;;;;;;;;5000534;28;25079;-73
2023/04/08 05:22:12;;;;;;;120.90;31.73;;;;;;;;;;5006999;28;25069;-71
2023/04/08 05:24:38;;;;;;;197.82;40.90;;;;;;;;;;5010032;28;25075;-72
2023/04/08 05:27:04;;;;;;;112.00;29.05;;;;;;;;;;5010052;28;25076;-72
2023/04/08 05:29:30;;;;;;;175.98;37.63;;;;;;;;;;4998849;28;25152;-74
2023/04/08 05:31:56;;;;;;;118.57;28.70;;;;;;;;;;5004359;28;25088;-73
2023/04/08 05:34:23;;;;;;;94.57;27.98;;;;;;;;;;5002981;28;25081;-74
2023/04/08 05:36:52;;;;;;;133.18;31.85;;;;;;;;;;5001491;28;25068;-73
2023/04/08 05:39:18;;;;;;;152.82;33.63;;;11.60;99.90;;;;;;5009450;28;25124;-73
2023/04/08 05:41:45;;;;;;;131.27;33.00;;;;;;;;;;5000838;28;25132;-72
2023/04/08 05:44:11;;;;;;;86.50;24.65;;;;;;;;;;5003995;28;25059;-72
2023/04/08 05:46:37;;;;;;;163.70;33.08;;;;;;;;;;5011182;28;25073;-71
2023/04/08 05:49:03;;;;;;;94.78;25.63;;;;;;;;;;5006641;28;25077;-71
2023/04/08 05:51:29;;;;;;;103.15;25.90;;;;;;;;;;5008064;28;25100;-73
2023/04/08 05:53:55;;;;;;;94.90;26.70;;;;;;;;;;5010134;28;25088;-71
2023/04/08 05:56:21;;;;;;;123.90;26.13;;;;;;;;;;5008487;28;25071;-72
2023/04/08 05:58:47;;;;;;;214.93;37.45;;;;;;;;;;4982049;28;25103;-71
2023/04/08 06:01:13;;;;;;;272.33;44.47;;;;;;;;;;5000163;28;25065;-71
2023/04/08 06:03:39;;;;;;;169.63;34.50;;;;;;;;;;5000681;28;25082;-72
2023/04/08 06:06:11;;;;;;;249.15;41.60;;;;;;;;;;5002589;28;25170;-73
2023/04/08 06:08:37;;;;;;;175.27;34.13;;;;;;;;;;5012843;28;25090;-71
2023/04/08 06:11:04;;;;;;;192.38;33.92;;;;;;;;;;5013740;28;25150;-72
2023/04/08 06:13:30;;;;;;;197.90;34.83;;;;;;;;;;5009004;28;25129;-72
2023/04/08 06:15:56;;;;;;;126.90;27.85;;;;;;;;;;5007945;28;25090;-71
2023/04/08 06:18:22;;;;;;;84.80;22.02;;;;;;;;;;5006518;28;25091;-72
2023/04/08 06:20:48;;;;;;;111.97;25.05;;;;;;;;;;5011701;28;25097;-72
2023/04/08 06:23:14;;;;;;;93.93;21.83;;;;;;;;;;5013780;28;25081;-72
2023/04/08 06:25:40;;;;;;;73.80;20.85;;;;;;;;;;5013646;28;25064;-73
2023/04/08 06:28:06;;;;;;;73.82;22.80;;;;;;;;;;5015071;28;25080;-72
2023/04/08 06:30:32;;;;;;;65.63;18.95;;;;;;;;;;5006366;28;25064;-73
2023/04/08 06:32:58;;;;;;;140.38;28.55;;;;;;;;;;5005944;28;25067;-73
2023/04/08 06:35:24;;;;;;;61.88;18.77;;;;;;;;;;5000814;28;25066;-76
2023/04/08 06:37:50;;;;;;;56.08;18.38;;;;;;;;;;4998981;28;25068;-74
2023/04/08 06:40:16;;;;;;;70.07;19.52;;;;;;;;;;4995748;28;25071;-74
2023/04/08 06:42:43;;;;;;;83.25;20.05;;;;;;;;;;5004246;28;25072;-74
2023/04/08 06:45:09;;;;;;;113.45;23.95;;;;;;;;;;5007885;28;25131;-70
2023/04/08 06:47:35;;;;;;;119.47;22.10;;;;;;;;;;5000161;28;25061;-71
2023/04/08 06:50:01;;;;;;;89.65;16.75;;;;;;;;;;5007974;28;25139;-72
2023/04/08 06:52:27;;;;;;;66.80;17.67;;;;;;;;;;5004573;28;25145;-71
2023/04/08 06:54:53;;;;;;;94.57;17.75;;;;;;;;;;5007980;28;25071;-72
2023/04/08 06:57:19;;;;;;;57.30;14.95;;;;;;;;;;5009933;28;25062;-72
2023/04/08 06:59:45;;;;;;;64.72;15.98;;;;;;;;;;5006905;28;25106;-72
2023/04/08 07:02:11;;;;;;;35.35;12.88;;;;;;;;;;5009193;28;25087;-73
2023/04/08 07:04:37;;;;;;;52.03;14.07;;;;;;;;;;5008334;28;25105;-75
2023/04/08 07:07:03;;;;;;;66.32;15.52;;;;;;;;;;5004412;28;25052;-71
2023/04/08 07:09:29;;;;;;;42.90;15.93;;;;;;;;;;5002622;28;25087;-73
2023/04/08 07:11:56;;;;;;;60.15;17.58;;;;;;;;;;5001948;28;25067;-73
2023/04/08 07:14:22;;;;;;;85.28;19.45;;;;;;;;;;5005111;28;25204;-72
2023/04/08 07:16:48;;;;;;;56.33;16.67;;;;;;;;;;4997758;28;25082;-71
2023/04/08 07:19:14;;;;;;;46.95;16.17;;;;;;;;;;5004785;28;25090;-72
2023/04/08 07:21:40;;;;;;;61.70;18.92;;;;;;;;;;4999150;28;25054;-73
2023/04/08 07:24:06;;;;;;;44.50;16.75;;;;;;;;;;5001163;28;25053;-72
2023/04/08 07:26:32;;;;;;;75.25;19.02;;;;;;;;;;5003684;28;25258;-72
2023/04/08 07:28:58;;;;;;;75.97;18.85;;;;;;;;;;5007614;28;25131;-71
2023/04/08 07:31:24;;;;;;;66.43;18.80;;;;;;;;;;5006788;28;25069;-72
2023/04/08 07:33:50;;;;;;;72.45;18.33;;;;;;;;;;4996631;28;25064;-70
2023/04/08 07:36:17;;;;;;;85.47;21.48;;;;;;;;;;5003021;28;25147;-71
2023/04/08 07:38:43;;;;;;;68.97;18.45;;;;;;;;;;4999879;28;25100;-72
2023/04/08 07:41:09;;;;;;;54.60;17.85;;;;;;;;;;5007622;28;25071;-72
2023/04/08 07:43:35;;;;;;;122.13;23.60;;;;;;;;;;5004202;28;25071;-71
2023/04/08 07:46:02;;;;;;;88.30;20.23;;;;;;;;;;5007034;28;25070;-72
2023/04/08 07:48:28;;;;;;;50.53;16.40;;;;;;;;;;5001706;28;24927;-71
2023/04/08 07:50:55;;;;;;;69.22;18.23;;;;;;;;;;5001642;28;25052;-74
2023/04/08 07:53:22;;;;;;;54.90;18.17;;;;;;;;;;5006433;28;25060;-73
2023/04/08 07:55:48;;;;;;;55.15;19.27;;;;;;;;;;5007920;28;25092;-72
2023/04/08 07:58:14;;;;;;;51.78;16.13;;;;;;;;;;4995347;28;25061;-72
2023/04/08 08:00:40;;;;;;;59.42;17.45;;;;;;;;;;5005279;28;25075;-73
2023/04/08 08:03:06;;;;;;;58.28;18.75;;;;;;;;;;4997902;28;25066;-73
2023/04/08 08:05:32;;;;;;;53.53;19.40;;;;;;;;;;4980304;28;25070;-71
2023/04/08 08:07:58;;;;;;;54.65;19.35;;;;;;;;;;5005649;28;25063;-71
2023/04/08 08:10:25;;;;;;;49.75;19.58;;;;;;;;;;5006847;28;25068;-70
2023/04/08 08:12:51;;;;;;;67.13;22.05;;;;;;;;;;5001453;28;25110;-71
2023/04/08 08:15:17;;;;;;;46.22;17.45;;;;;;;;;;4999512;28;25098;-72
2023/04/08 08:17:43;;;;;;;39.03;17.13;;;;;;;;;;5003197;28;25080;-72
2023/04/08 08:20:09;;;;;;;54.03;18.83;;;;;;;;;;4999735;28;25070;-71
2023/04/08 08:22:35;;;;;;;45.30;19.75;;;;;;;;;;5007950;28;25097;-70
2023/04/08 08:25:01;;;;;;;52.25;19.55;;;;;;;;;;5006345;28;25076;-70
2023/04/08 08:27:27;;;;;;;41.60;18.70;;;;;;;;;;5001562;28;25056;-71
2023/04/08 08:29:53;;;;;;;51.03;19.63;;;;;;;;;;5000664;28;25112;-72
2023/04/08 08:32:19;;;;;;;49.05;20.58;;;;;;;;;;5000970;28;25078;-71
2023/04/08 08:34:45;;;;;;;48.78;20.98;;;;;;;;;;5000491;28;25140;-70
2023/04/08 08:37:11;;;;;;;48.47;20.15;;;;;;;;;;5000391;28;25164;-71
2023/04/08 08:39:37;;;;;;;45.95;19.65;;;;;;;;;;5000886;28;25117;-70
2023/04/08 08:42:03;;;;;;;41.17;18.50;;;;;;;;;;4996448;28;25145;-70
2023/04/08 08:44:29;;;;;;;40.53;19.50;;;;;;;;;;4993358;28;25045;-70
2023/04/08 08:46:55;;;;;;;48.97;20.95;;;;;;;;;;4997960;28;25072;-72
2023/04/08 08:49:22;;;;;;;46.33;21.02;;;;;;;;;;5004647;28;25077;-71
2023/04/08 08:51:49;;;;;;;42.08;19.30;;;;;;;;;;5002419;28;25065;-71
2023/04/08 08:54:16;;;;;;;41.53;19.80;;;;;;;;;;5007633;28;25062;-71
2023/04/08 08:56:42;;;;;;;42.80;20.15;;;;;;;;;;5005167;28;25171;-71
2023/04/08 08:59:08;;;;;;;45.95;20.08;;;;;;;;;;5002221;28;25071;-74
2023/04/08 09:01:40;;;;;;;38.08;19.23;;;;;;;;;;5002521;28;25108;-71
2023/04/08 09:04:10;;;;;;;43.53;20.45;;;;;;;;;;5003966;28;25118;-72
2023/04/08 09:06:37;;;;;;;46.88;21.75;;;;;;;;;;5008774;28;25072;-69
2023/04/08 09:09:05;;;;;;;39.35;19.63;;;;;;;;;;5004599;28;25108;-72
2023/04/08 09:11:32;;;;;;;41.88;19.85;;;;;;;;;;5003411;28;25073;-70
2023/04/08 09:13:58;;;;;;;45.08;21.20;;;;;;;;;;5004694;28;25089;-71
2023/04/08 09:16:24;;;;;;;43.75;20.08;;;;;;;;;;5002851;28;25149;-71
2023/04/08 09:18:51;;;;;;;42.53;21.20;;;;;;;;;;5009038;28;25086;-71
2023/04/08 09:21:17;;;;;;;46.13;22.27;;;;;;;;;;5006005;28;25074;-70
2023/04/08 09:23:44;;;;;;;40.05;21.17;;;;;;;;;;5009320;28;25163;-72
2023/04/08 09:26:12;;;;;;;41.05;20.52;;;;;;;;;;5005492;28;25070;-70
2023/04/08 09:28:39;;;;;;;38.75;19.10;;;;;;;;;;4996285;28;25098;-70
2023/04/08 09:31:19;;;;;;;40.53;20.85;;;;;;;;;;4983350;28;25137;-74
2023/04/08 09:33:46;;;;;;;42.85;21.70;;;;;;;;;;5002269;28;25069;-71
2023/04/08 09:36:12;;;;;;;39.90;21.63;;;;;;;;;;4978120;28;25084;-72
2023/04/08 09:38:38;;;;;;;37.88;21.38;;;;;;;;;;5003332;28;25064;-72
2023/04/08 09:41:07;;;;;;;39.08;20.83;;;;;;;;;;4999347;28;25068;-72
2023/04/08 09:43:35;;;;;;;39.83;22.73;;;;;;;;;;5004775;28;25098;-74
2023/04/08 09:46:04;;;;;;;34.80;19.50;;;;;;;;;;4998590;28;25068;-72
2023/04/08 09:48:32;;;;;;;36.75;20.33;;;;;;;;;;4993916;28;25095;-72
2023/04/08 09:50:59;;;;;;;37.75;21.23;;;;;;;;;;4994257;28;25058;-70
2023/04/08 09:53:35;;;;;;;39.58;22.52;;;;;;;;;;5004287;28;25078;-73
2023/04/08 09:56:01;;;;;;;38.25;20.45;;;;;;;;;;4997971;28;25140;-70
2023/04/08 09:58:29;;;;;;;35.35;20.02;;;;;;;;;;5005380;28;25116;-70
2023/04/08 10:00:55;;;;;;;37.53;20.67;;;;;;;;;;4992992;28;25122;-70
2023/04/08 10:03:24;;;;;;;38.55;21.77;;;;;;;;;;5002561;28;25067;-72
2023/04/08 10:05:52;;;;;;;37.05;20.05;;;;;;;;;;5004066;28;25086;-73
2023/04/08 10:08:18;;;;;;;38.50;20.80;;;;;;;;;;4996658;28;25060;-73
2023/04/08 10:10:45;;;;;;;39.38;22.70;;;;;;;;;;4983478;28;25077;-71
2023/04/08 10:13:11;;;;;;;40.60;23.30;;;;;;;;;;4998246;28;25094;-73
2023/04/08 10:15:39;;;;;;;44.65;23.88;;;;;;;;;;4995282;28;25067;-71
2023/04/08 10:18:05;;;;;;;45.88;24.33;;;;;;;;;;5001555;28;25147;-70
2023/04/08 10:20:37;;;;;;;38.97;22.48;;;;;;;;;;5005831;28;25073;-72
2023/04/08 10:23:04;;;;;;;39.30;22.35;;;;;;;;;;5009594;28;25062;-71
2023/04/08 10:25:40;;;;;;;32.92;19.50;;;;;;;;;;4991036;28;25060;-72
2023/04/08 10:28:18;;;;;;;36.55;20.17;;;;;;;;;;4994954;28;25074;-73
2023/04/08 10:30:51;;;;;;;33.53;20.10;;;;;;;;;;5018481;28;25248;-72
2023/04/08 10:33:18;;;;;;;33.42;20.08;;;;;;;;;;5013602;28;25060;-73
2023/04/08 10:35:47;;;;;;;34.17;19.83;;;;;;;;;;5008924;28;25070;-75
2023/04/08 10:38:14;;;;;;;32.97;19.25;;;;;;;;;;4993355;28;25130;-73
2023/04/08 10:40:41;;;;;;;32.63;18.17;;;;;;;;;;5008898;28;25061;-73
2023/04/08 10:43:09;;;;;;;32.60;18.60;;;;;;;;;;5006773;28;25051;-72
2023/04/08 10:45:35;;;;;;;29.67;17.65;;;;;;;;;;5013609;28;25077;-72
2023/04/08 10:48:11;;;;;;;29.45;16.30;;;;;;;;;;5008335;28;25075;-72
2023/04/08 10:50:37;;;;;;;21.83;14.95;;;;;;;;;;5013779;28;25097;-73
2023/04/08 10:53:04;;;;;;;26.60;16.70;;;;;;;;;;4990990;28;25175;-73
2023/04/08 10:55:31;;;;;;;25.00;15.32;;;;;;;;;;5013864;28;25059;-74
2023/04/08 10:58:05;;;;;;;28.75;16.77;;;;;;;;;;4996913;28;25125;-74
2023/04/08 11:00:38;;;;;;;25.83;16.08;;;;;;;;;;5011177;28;25093;-72
2023/04/08 11:03:06;;;;;;;25.63;16.42;;;;;;;;;;5014663;28;25081;-73
2023/04/08 11:05:32;;;;;;;26.15;15.60;;;;;;;;;;5014607;28;25059;-75
2023/04/08 11:07:58;;;;;;;33.05;14.52;;;;;;;;;;5012891;28;25105;-75
2023/04/08 11:10:25;;;;;;;23.98;15.00;;;;;;;;;;5001626;28;25093;-72
2023/04/08 11:12:53;;;;;;;22.65;14.38;;;;;;;;;;5030673;28;25094;-76
2023/04/08 11:15:19;;;;;;;21.55;12.98;;;;;;;;;;5020419;28;25062;-76
2023/04/08 11:17:46;;;;;;;20.20;12.82;;;;;;;;;;5017741;28;25115;-76
2023/04/08 11:20:13;;;;;;;20.65;13.63;;;;;;;;;;5000242;28;25072;-76
2023/04/08 11:22:39;;;;;;;24.67;14.80;;;;;;;;;;5024528;28;25061;-75
2023/04/08 11:25:07;;;;;;;21.70;14.32;;;;;;;;;;5010129;28;25077;-74
2023/04/08 11:27:34;;;;;;;20.38;14.75;;;;;;;;;;5015513;28;25075;-75
2023/04/08 11:30:01;;;;;;;24.02;15.57;;;;;;;;;;5018234;28;25062;-73
2023/04/08 11:32:27;;;;;;;22.08;14.43;;;;;;;;;;5012001;28;25057;-74
2023/04/08 11:34:54;;;;;;;24.77;15.05;;;;;;;;;;5010496;28;25055;-76
2023/04/08 11:37:21;;;;;;;27.92;16.65;;;;;;;;;;5015065;28;25136;-73
2023/04/08 11:39:47;;;;;;;21.55;14.35;;;;;;;;;;5006016;28;25057;-72
2023/04/08 11:42:32;;;;;;;24.50;15.65;;;;;;;;;;5010148;28;25060;-74
2023/04/08 11:44:58;;;;;;;23.70;15.30;;;;;;;;;;4996227;28;25089;-75
2023/04/08 11:47:34;;;;;;;24.15;14.07;;;;;;;;;;5019919;28;25109;-73
2023/04/08 11:50:00;;;;;;;23.92;16.15;;;;;;;;;;5019329;28;25086;-74
2023/04/08 11:52:45;;;;;;;26.38;14.75;;;;;;;;;;5021996;28;25090;-74
2023/04/08 11:55:12;;;;;;;22.85;15.60;;;;;;;;;;5014897;28;25060;-72
2023/04/08 11:57:39;;;;;;;22.55;14.15;;;;;;;;;;5008892;28;25055;-75
2023/04/08 12:00:08;;;;;;;22.92;14.05;;;;;;;;;;5010221;28;25135;-73
2023/04/08 12:02:34;;;;;;;21.48;13.52;;;;;;;;;;5016745;28;25101;-73
2023/04/08 12:05:01;;;;;;;23.98;14.20;;;;;;;;;;5011897;28;25060;-75
2023/04/08 12:07:28;;;;;;;21.48;13.68;;;;;;;;;;4994941;28;25082;-73
2023/04/08 12:09:54;;;;;;;21.63;14.73;;;;;;;;;;5010016;28;25052;-74
2023/04/08 12:12:20;;;;;;;21.25;13.95;;;;;;;;;;5013427;28;25101;-74
2023/04/08 12:14:47;;;;;;;22.63;14.23;;;;;;;;;;5018145;28;25145;-74
2023/04/08 12:17:13;;;;;;;17.80;11.52;;;;;;;;;;5014703;28;25089;-73
2023/04/08 12:19:39;;;;;;;18.67;12.55;;;;;;;;;;5012135;28;25068;-78
2023/04/08 12:22:05;;;;;;;20.13;13.43;;;;;;;;;;5001099;28;25071;-74
2023/04/08 12:24:31;;;;;;;19.30;12.93;;;;;;;;;;5008272;28;25071;-74
2023/04/08 12:26:57;;;;;;;19.73;13.82;;;;;;;;;;5006575;28;25080;-74
2023/04/08 12:29:23;;;;;;;22.63;13.95;;;;;;;;;;5000676;28;25083;-74
2023/04/08 12:31:48;;;;;;;22.77;14.50;;;;;;;;;;4995972;28;25100;-74
2023/04/08 12:34:15;;;;;;;21.25;13.40;;;;;;;;;;4999675;28;25069;-75
2023/04/08 12:36:41;;;;;;;18.38;12.77;;;;;;;;;;4985055;28;25073;-75
2023/04/08 12:39:07;;;;;;;19.90;13.15;;;;;;;;;;4995212;28;25051;-75
2023/04/08 12:41:33;;;;;;;17.02;11.85;;;;;;;;;;5000735;28;25060;-74
2023/04/08 12:43:59;;;;;;;17.17;11.70;;;;;;;;;;5004774;28;25073;-76
2023/04/08 12:46:26;;;;;;;21.13;10.75;;;;;;;;;;4989070;28;25174;-77
2023/04/08 12:48:51;;;;;;;17.25;12.57;;;;;;;;;;4999115;28;25145;-74
2023/04/08 12:51:18;;;;;;;17.95;12.63;;;;;;;;;;4995277;28;25065;-75
2023/04/08 12:53:44;;;;;;;17.75;11.75;;;;;;;;;;5000576;28;25068;-75
2023/04/08 12:56:09;;;;;;;15.25;11.70;;;;;;;;;;4996552;28;25048;-73
2023/04/08 12:58:36;;;;;;;21.77;12.93;;;;;;;;;;4995675;28;25168;-76
2023/04/08 13:01:02;;;;;;;16.38;10.30;;;;;;;;;;4997730;28;25055;-73
2023/04/08 13:03:30;;;;;;;18.17;11.88;;;;;;;;;;5005904;28;25079;-75
2023/04/08 13:05:57;;;;;;;17.58;10.70;;;;;;;;;;5000533;28;25061;-75
2023/04/08 13:08:23;;;;;;;15.15;9.60;;;;;;;;;;4999006;28;25170;-75
2023/04/08 13:10:50;;;;;;;17.83;9.88;;;;;;;;;;5002315;28;25053;-76
2023/04/08 13:13:16;;;;;;;16.15;10.20;;;;;;;;;;4982446;28;25137;-74
2023/04/08 13:15:42;;;;;;;27.50;10.27;;;;;;;;;;5016660;28;25063;-75
2023/04/08 13:18:09;;;;;;;16.83;9.73;;;;;;;;;;4981858;28;25051;-74
2023/04/08 13:20:35;;;;;;;16.17;10.50;;;;;;;;;;4996155;28;25070;-76
2023/04/08 13:23:01;;;;;;;14.77;9.95;;;;;;;;;;4998196;28;25104;-74
2023/04/08 13:25:27;;;;;;;13.48;9.70;;;;;;;;;;5006744;28;25064;-75
2023/04/08 13:27:53;;;;;;;16.77;10.10;;;;;;;;;;5003502;28;25103;-75
2023/04/08 13:30:19;;;;;;;13.32;9.05;;;;;;;;;;5006531;28;25085;-76
2023/04/08 13:32:45;;;;;;;14.68;9.23;;;;;;;;;;4996255;28;25065;-74
2023/04/08 13:35:11;;;;;;;14.50;9.80;;;;;;;;;;5004168;28;25129;-79
2023/04/08 13:37:37;;;;;;;16.30;9.15;;;;;;;;;;5001496;28;25058;-75
2023/04/08 13:40:03;;;;;;;14.88;9.15;;;;;;;;;;5003394;28;25134;-73
2023/04/08 13:42:33;;;;;;;16.50;8.32;;;;;;;;;;5001826;28;25063;-76
2023/04/08 13:44:59;;;;;;;13.32;8.20;;;;;;;;;;4990176;28;25063;-74
2023/04/08 13:47:25;;;;;;;13.73;8.05;;;;;;;;;;5003040;28;25081;-74
2023/04/08 13:49:52;;;;;;;16.42;8.75;;;;;;;;;;5003672;28;25067;-74
2023/04/08 13:52:18;;;;;;;14.70;8.75;;;;;;;;;;5006292;28;25070;-76
2023/04/08 13:54:44;;;;;;;15.63;8.90;;;;;;;;;;5002168;28;25108;-74
2023/04/08 13:57:10;;;;;;;18.65;8.60;;;;;;;;;;5004476;28;25072;-73
2023/04/08 13:59:36;;;;;;;15.90;8.60;;;;;;;;;;5002624;28;25085;-75
2023/04/08 14:02:02;;;;;;;13.40;9.00;;;;;;;;;;5007790;28;25090;-75
2023/04/08 14:04:28;;;;;;;13.95;8.50;;;;;;;;;;5006014;28;25129;-74
2023/04/08 14:06:56;;;;;;;15.35;9.65;;;;;;;;;;4985141;28;25160;-73
2023/04/08 14:09:23;;;;;;;14.70;9.50;;;;;;;;;;5006468;28;25125;-74
2023/04/08 14:11:49;;;;;;;13.30;8.80;;;;;;;;;;5005854;28;25156;-73
2023/04/08 14:14:15;;;;;;;12.85;8.88;;;;;;;;;;5004040;28;25057;-74